Latest Weather Observations for Alice Springs Airport

IDD60801

Issued at 9:31 am CST Tuesday 31 May 2016 (issued every 30 minutes, with the page automatically refreshed every 10 minutes)

About weather observations | Map of weather stations | Latest weather observations for NT | Other Formats
Station Details ID: 015590 Name: ALICE SPRINGS AIRPORT Lat: -23.80 Lon: 133.89 Height: 546.0 m
Data from the previous 72 hours. | See also: Recent months at Alice Springs Airport
Date/Time
CST
Temp
°C
App
Temp
°C
Dew
Point
Rel
Hum
%
Delta-T
°C
Wind Press
QNH
hPa
Press
MSL
hPa
Rain
since 9 am
mm
Dir
 
Spd
km/h
Gust
km/h
Spd
kts
Gust
kts
31/09:00am 16.6 17.1 14.0 84 1.5 N 4 11 2 6 1022.1 1020.9 17.2
31/08:30am 16.4 17.3 14.0 86 1.4 NNW 2 7 1 4 1021.4 1020.3 17.2
31/08:00am 14.9 16.2 14.2 96 0.4 CALM 0 0 0 0 1021.3 1020.2 17.2
31/07:30am 14.4 14.4 13.5 94 0.5 SE 6 9 3 5 1021.0 1019.9 17.2
31/07:00am 14.9 16.0 13.5 91 0.8 CALM 0 0 0 0 1020.7 1019.6 17.2
31/06:30am 14.8 15.9 13.6 92 0.7 CALM 0 0 0 0 1020.3 1019.1 17.2
31/06:00am 15.1 15.8 13.5 90 0.9 E 2 7 1 4 1019.9 1018.7 17.2
31/05:30am 14.4 15.6 13.9 97 0.3 CALM 0 0 0 0 1020.2 1019.0 17.2
31/05:00am 14.3 14.3 13.6 96 0.4 ENE 6 7 3 4 1019.6 1018.5 17.2
31/04:30am 14.5 14.4 13.8 96 0.4 ESE 7 7 4 4 1019.7 1018.6 17.2
31/04:00am 14.6 14.4 13.5 93 0.6 E 7 11 4 6 1020.1 1018.9 17.2
31/03:30am 14.5 13.6 13.8 96 0.4 ENE 11 15 6 8 1019.7 1018.6 17.2
31/03:00am 14.4 14.2 13.7 96 0.4 ENE 7 11 4 6 1019.9 1018.7 17.2
31/02:30am 14.4 13.4 13.5 94 0.5 ENE 11 13 6 7 1020.2 1019.0 17.2
31/02:00am 14.6 13.7 13.7 94 0.5 NE 11 13 6 7 1020.3 1019.1 17.2
31/01:30am 14.6 13.0 13.9 96 0.4 NE 15 19 8 10 1020.5 1019.3 17.2
31/01:00am 14.6 13.8 14.1 97 0.3 ENE 11 15 6 8 1020.8 1019.7 17.2
31/12:30am 14.6 13.8 13.9 96 0.4 ENE 11 13 6 7 1020.9 1019.8 17.2
31/12:00am 14.5 13.7 14.0 97 0.3 ENE 11 15 6 8 1021.1 1020.0 17.2
 
Date/Time
CST
Temp
°C
App
Temp
°C
Dew
Point
Rel
Hum
%
Delta-T
°C
Wind Press
QNH
hPa
Press
MSL
hPa
Rain
since 9 am
mm
Dir
 
Spd
km/h
Gust
km/h
Spd
kts
Gust
kts
30/11:30pm 14.6 13.0 13.9 96 0.4 NE 15 19 8 10 1021.5 1020.4 17.2
30/11:19pm 14.6 12.6 13.9 96 0.4 ENE 17 22 9 12 1021.5 1020.4 17.2
30/11:00pm 14.6 12.7 14.1 97 0.3 NE 17 22 9 12 1021.8 1020.6 16.6
30/10:58pm 14.6 12.7 14.1 97 0.3 NE 17 20 9 11 1021.6 1020.5 16.0
30/10:56pm 14.7 12.8 14.2 97 0.3 NNE 17 20 9 11 1021.6 1020.5 15.8
30/10:37pm 14.7 13.2 14.2 97 0.3 NE 15 19 8 10 1021.9 1020.7 14.4
30/10:30pm 14.8 12.9 14.1 96 0.4 NE 17 22 9 12 1022.1 1020.9 13.4
30/10:00pm 14.8 12.9 14.3 97 0.3 NE 17 22 9 12 1022.0 1020.8 12.2
30/09:30pm 14.6 12.3 14.1 97 0.3 ENE 19 26 10 14 1022.3 1021.2 11.2
30/09:00pm 14.9 13.5 14.4 97 0.3 E 15 19 8 10 1022.4 1021.3 10.2
30/08:30pm 14.9 13.5 14.6 98 0.2 ENE 15 19 8 10 1021.9 1020.7 8.8
30/08:00pm 15.1 13.8 14.8 98 0.2 ENE 15 20 8 11 1021.9 1020.7 8.0
30/07:30pm 15.4 14.5 14.9 97 0.3 E 13 17 7 9 1021.9 1020.7 7.0
30/07:00pm 15.7 15.6 15.0 96 0.4 S 9 11 5 6 1021.6 1020.5 6.4
30/06:30pm 15.7 15.2 15.0 96 0.4 NNE 11 13 6 7 1021.0 1019.9 5.6
30/06:27pm 15.7 15.2 15.0 96 0.4 NNE 11 13 6 7 1021.0 1019.9 5.6
30/06:00pm 15.8 16.5 14.4 91 0.8 S 4 9 2 5 1020.9 1019.8 5.6
30/05:42pm 15.9 16.1 14.7 93 0.7 SSE 7 9 4 5 1020.8 1019.7 5.6
30/05:30pm 16.0 16.0 15.3 96 0.4 S 9 11 5 6 1020.6 1019.4 5.4
30/05:20pm 16.1 16.1 15.1 94 0.6 SW 9 13 5 7 1020.7 1019.6 4.2
30/05:00pm 16.4 16.2 14.7 90 1.0 S 9 13 5 7 1020.0 1018.8 2.8
30/04:44pm 16.7 16.6 15.0 90 1.0 SSE 9 13 5 7 1019.6 1018.5 2.6
30/04:30pm 16.8 17.5 14.6 87 1.3 E 4 9 2 5 1019.4 1018.3 2.6
30/04:25pm 17.4 17.6 14.2 81 1.9 E 6 11 3 6 1019.3 1018.2 1.8
30/04:24pm 17.5 17.5 14.1 80 2.0 E 7 11 4 6 1019.4 1018.3 1.6
30/04:21pm 17.5 17.0 13.9 79 2.1 E 9 13 5 7 1019.3 1018.2 1.2
30/04:19pm 17.5 16.6 13.7 78 2.2 E 11 15 6 8 1019.1 1018.0 1.2
30/04:00pm 17.8 16.9 13.7 77 2.4 NE 11 15 6 8 1018.7 1017.5 1.2
30/03:30pm 18.1 16.7 13.4 74 2.7 NE 13 15 7 8 1018.6 1017.4 1.2
30/03:00pm 18.8 17.4 13.5 71 3.1 NNE 13 15 7 8 1018.8 1017.6 1.2
30/02:30pm 18.8 18.0 13.9 73 2.9 NNE 11 13 6 7 1018.9 1017.7 1.2
30/02:00pm 18.4 17.6 14.1 76 2.5 NE 11 17 6 9 1019.1 1018.0 1.2
30/01:50pm 18.4 17.3 14.3 77 2.4 ENE 13 19 7 10 1019.1 1018.0 1.2
30/01:43pm 18.5 18.0 14.8 79 2.2 E 11 13 6 7 1019.1 1018.0 1.2
30/01:30pm 18.5 17.8 15.5 83 1.8 ENE 13 15 7 8 1019.1 1018.0 1.2
30/01:00pm 18.0 18.3 15.0 82 1.8 ENE 7 9 4 5 1019.7 1018.6 1.2
30/12:30pm 17.9 18.4 15.0 83 1.7 E 6 7 3 4 1020.3 1019.1 1.2
30/12:23pm 18.1 19.4 15.1 82 1.8 W 2 7 1 4 1020.4 1019.2 1.0
30/12:00pm 18.3 18.8 15.5 84 1.7 NE 7 11 4 6 1020.6 1019.4 0.4
30/11:51am 18.6 18.9 16.0 85 1.6 ENE 9 13 5 7 1020.4 1019.2 0.4
30/11:30am 18.6 18.4 15.8 84 1.7 E 11 13 6 7 1020.3 1019.1 0.2
30/11:00am 19.2 19.6 14.7 75 2.7 E 6 7 3 4 1020.9 1019.8 0.0
30/10:30am 19.1 18.5 14.7 75 2.6 ENE 11 13 6 7 1020.7 1019.6 0.0
30/10:00am 18.4 17.8 14.7 79 2.2 NE 11 13 6 7 1020.9 1019.8 0.0
30/09:30am 17.8 17.0 15.1 84 1.6 NE 13 15 7 8 1020.6 1019.4 0.0
30/09:00am 17.3 17.1 15.6 90 1.0 NE 11 13 6 7 1020.3 1019.1 2.6
30/08:30am 16.4 16.4 15.2 93 0.7 NNE 9 11 5 6 1020.5 1019.3 2.6
30/08:00am 15.3 15.2 15.0 98 0.2 NNE 9 11 5 6 1020.3 1019.1 2.6
30/07:53am 15.3 14.8 14.8 97 0.3 N 11 26 6 14 1020.2 1019.0 2.6
30/07:47am 15.3 14.0 14.8 97 0.3 NW 15 26 8 14 1020.3 1019.1 2.2
30/07:44am 15.3 14.8 14.8 97 0.3 N 11 26 6 14 1020.9 1019.8 1.6
30/07:39am 15.0 15.4 14.7 98 0.2 ESE 6 9 3 5 1020.4 1019.2 1.2
30/07:30am 14.7 14.3 14.2 97 0.3 ENE 9 11 5 6 1019.2 1018.1 1.2
30/07:00am 14.3 15.6 14.0 98 0.2 CALM 0 0 0 0 1019.2 1018.1 1.2
30/06:30am 14.5 15.8 14.0 97 0.3 CALM 0 6 0 3 1019.2 1018.1 1.2
30/06:00am 15.0 14.7 14.5 97 0.3 WNW 9 17 5 9 1019.2 1018.1 1.2
30/05:30am 15.5 14.5 14.6 94 0.5 NE 13 15 7 8 1018.9 1017.7 1.2
30/05:00am 15.2 14.6 14.7 97 0.3 NW 11 13 6 7 1019.6 1018.5 1.2
30/04:30am 15.2 15.3 14.5 96 0.4 N 7 9 4 5 1018.8 1017.6 1.2
30/04:00am 15.4 14.4 14.7 96 0.4 E 13 17 7 9 1018.5 1017.3 1.2
30/03:30am 15.9 13.5 14.4 91 0.9 W 20 26 11 14 1019.9 1018.7 0.4
30/03:00am 15.1 13.9 13.9 92 0.7 WNW 13 17 7 9 1018.9 1017.7 0.4
30/02:30am 15.6 15.3 12.8 83 1.6 N 6 11 3 6 1018.4 1017.2 0.4
30/02:00am 15.8 12.6 12.0 78 2.1 WNW 20 28 11 15 1019.1 1018.0 0.2
30/01:30am 16.1 14.6 9.3 64 3.6 W 7 11 4 6 1018.1 1016.9 0.0
30/01:00am 15.6 13.4 9.2 65 3.4 N 11 15 6 8 1018.3 1017.1 0.0
30/12:30am 14.8 12.1 9.1 68 3.0 SW 13 17 7 9 1018.1 1016.9 0.0
30/12:00am 15.0 14.9 9.3 68 3.0 CALM 0 0 0 0 1018.2 1017.0 0.0
 
Date/Time
CST
Temp
°C
App
Temp
°C
Dew
Point
Rel
Hum
%
Delta-T
°C
Wind Press
QNH
hPa
Press
MSL
hPa
Rain
since 9 am
mm
Dir
 
Spd
km/h
Gust
km/h
Spd
kts
Gust
kts
29/11:30pm 15.1 13.6 8.6 65 3.4 NNE 6 7 3 4 1018.4 1017.2 0.0
29/11:00pm 16.3 14.7 8.9 61 3.9 N 7 9 4 5 1018.5 1017.3 0.0
29/10:30pm 16.6 14.4 7.9 56 4.5 N 9 11 5 6 1018.4 1017.2 0.0
29/10:00pm 16.9 15.2 8.3 57 4.5 N 7 9 4 5 1018.5 1017.3 0.0
29/09:30pm 17.0 16.4 7.5 53 4.9 CALM 0 0 0 0 1018.6 1017.4 0.0
29/09:00pm 17.4 15.8 8.7 56 4.6 S 7 9 4 5 1018.5 1017.3 0.0
29/08:30pm 18.7 16.4 7.6 48 5.8 SSW 9 9 5 5 1018.5 1017.3 0.0
29/08:00pm 19.9 17.6 7.3 44 6.6 N 9 9 5 5 1018.1 1016.9 0.0
29/07:30pm 18.7 16.0 7.4 47 5.9 N 11 13 6 7 1018.0 1016.8 0.0
29/07:00pm 19.4 17.1 7.6 46 6.2 N 9 9 5 5 1017.6 1016.5 0.0
29/06:30pm 21.0 19.1 7.6 42 7.1 N 7 7 4 4 1017.3 1016.1 0.0
29/06:00pm 23.1 20.2 6.6 34 8.7 NNW 11 11 6 6 1017.1 1015.9 0.0
29/05:30pm 24.7 21.3 5.8 29 9.9 NW 13 17 7 9 1016.7 1015.5 0.0
29/05:00pm 25.7 21.7 4.9 26 10.8 N 15 20 8 11 1016.6 1015.4 0.0
29/04:30pm 25.7 22.2 5.5 27 10.6 NNW 13 17 7 9 1016.5 1015.3 0.0
29/04:00pm 26.4 23.5 4.9 25 11.2 W 9 15 5 8 1016.3 1015.1 0.0
29/03:30pm 27.0 23.0 5.1 24 11.5 NW 15 26 8 14 1016.3 1015.1 0.0
29/03:00pm 25.9 21.9 4.9 26 10.9 WNW 15 24 8 13 1016.5 1015.3 0.0
29/02:30pm 26.1 21.6 4.4 24 11.2 NNW 17 30 9 16 1016.6 1015.4 0.0
29/02:00pm 25.9 21.5 4.6 25 11.0 NNW 17 20 9 11 1016.9 1015.7 0.0
29/01:30pm 25.5 21.7 3.9 24 11.0 NNW 13 24 7 13 1017.3 1016.1 0.0
29/01:00pm 25.1 21.1 4.7 26 10.5 NW 15 19 8 10 1017.9 1016.7 0.0
29/12:30pm 24.8 21.8 6.0 30 9.9 WNW 11 19 6 10 1018.5 1017.3 0.0
29/12:00pm 24.6 21.5 5.6 29 9.9 NNW 11 19 6 10 1018.8 1017.6 0.0
29/11:30am 24.2 20.9 2.7 24 10.6 N 9 13 5 7 1019.3 1018.2 0.0
29/11:00am 22.7 18.5 1.9 25 10.0 NNW 13 17 7 9 1019.9 1018.7 0.0
29/10:30am 22.4 17.8 1.3 25 10.0 N 15 17 8 9 1020.1 1018.9 0.0
29/10:00am 21.1 16.4 1.0 26 9.4 N 15 20 8 11 1020.0 1018.8 0.0
29/09:30am 19.4 15.0 0.2 27 8.7 NNW 13 20 7 11 1020.1 1018.9 0.0
29/09:00am 18.7 14.7 0.7 30 8.2 N 11 13 6 7 1019.6 1018.5 0.0
29/08:30am 17.6 13.7 1.1 33 7.5 N 11 15 6 8 1019.5 1018.4 0.0
29/08:00am 14.5 12.0 4.7 52 4.7 NNW 7 9 4 5 1019.5 1018.4 0.0
29/07:30am 13.5 11.7 3.3 50 4.7 NW 2 6 1 3 1019.1 1018.0 0.0
29/07:00am 13.7 12.2 3.0 48 4.9 CALM 0 0 0 0 1018.9 1017.7 0.0
29/06:30am 14.6 13.1 2.9 45 5.4 CALM 0 0 0 0 1018.4 1017.2 0.0
29/06:00am 14.0 11.5 4.0 51 4.7 E 6 7 3 4 1018.0 1016.8 0.0
29/05:30am 13.3 11.6 4.1 53 4.3 N 2 6 1 3 1018.0 1016.8 0.0
29/05:00am 12.4 10.3 5.8 64 3.2 NE 6 7 3 4 1018.0 1016.8 0.0
29/04:30am 12.0 9.7 5.5 64 3.1 NE 7 7 4 4 1017.7 1016.6 0.0
29/04:00am 12.0 11.1 6.0 66 2.9 CALM 0 0 0 0 1018.2 1017.0 0.0
29/03:30am 11.7 10.4 4.1 59 3.5 CALM 0 0 0 0 1018.2 1017.0 0.0
29/03:00am 11.5 10.3 4.7 63 3.2 CALM 0 0 0 0 1018.2 1017.0 0.0
29/02:30am 11.4 9.0 4.3 61 3.3 N 6 7 3 4 1018.1 1016.9 0.0
29/02:00am 11.9 9.2 2.8 53 4.1 ESE 6 7 3 4 1018.2 1017.0 0.0
29/01:30am 12.9 9.7 2.8 50 4.6 ESE 9 11 5 6 1018.3 1017.1 0.0
29/01:00am 13.8 10.1 2.3 45 5.2 ENE 11 13 6 7 1018.0 1016.8 0.0
29/12:30am 14.1 10.6 1.3 41 5.7 E 9 11 5 6 1018.3 1017.1 0.0
29/12:00am 13.9 10.2 2.5 46 5.2 ENE 11 13 6 7 1018.6 1017.4 0.0
 
Date/Time
CST
Temp
°C
App
Temp
°C
Dew
Point
Rel
Hum
%
Delta-T
°C
Wind Press
QNH
hPa
Press
MSL
hPa
Rain
since 9 am
mm
Dir
 
Spd
km/h
Gust
km/h
Spd
kts
Gust
kts
28/11:30pm 14.9 11.7 2.8 44 5.6 ENE 9 11 5 6 1018.9 1017.7 0.0
28/11:00pm 16.0 12.3 2.3 39 6.3 ENE 11 15 6 8 1019.1 1018.0 0.0
28/10:30pm 16.2 12.3 3.2 41 6.1 NE 13 17 7 9 1019.2 1018.1 0.0
28/10:00pm 16.8 13.5 2.7 39 6.6 SE 9 9 5 5 1019.9 1018.7 0.0
28/09:30pm 16.7 13.5 2.8 39 6.5 ESE 9 11 5 6 1019.7 1018.6 0.0
28/09:00pm 16.1 12.6 3.7 43 5.9 ESE 11 13 6 7 1019.4 1018.3 0.0
28/08:30pm 16.6 13.5 3.8 42 6.1 E 9 15 5 8 1019.3 1018.2 0.0
28/08:00pm 17.4 14.2 3.0 38 6.8 E 9 11 5 6 1019.3 1018.2 0.0
28/07:30pm 17.4 13.9 3.6 40 6.6 ENE 11 13 6 7 1019.1 1018.0 0.0
28/07:00pm 18.0 14.8 2.8 36 7.2 E 9 11 5 6 1018.9 1017.7 0.0
28/06:30pm 18.1 15.0 3.8 38 6.9 ENE 9 11 5 6 1018.5 1017.3 0.0
28/06:00pm 19.5 16.0 1.5 30 8.4 SE 9 11 5 6 1018.3 1017.1 0.0
28/05:30pm 19.8 16.5 2.6 32 8.2 SE 9 11 5 6 1018.2 1017.0 0.0
28/05:00pm 20.2 16.4 1.7 29 8.7 ESE 11 15 6 8 1017.6 1016.5 0.0
28/04:30pm 20.4 16.5 1.4 28 8.9 ESE 11 17 6 9 1017.5 1016.4 0.0
28/04:00pm 20.4 17.0 2.1 29 8.7 E 9 15 5 8 1017.4 1016.2 0.0
28/03:30pm 20.4 16.5 1.4 28 8.9 E 11 19 6 10 1017.6 1016.5 0.0
28/03:00pm 20.2 17.1 1.4 28 8.8 NE 7 13 4 7 1018.1 1016.9 0.0
28/02:30pm 20.3 17.3 2.2 30 8.6 NE 7 13 4 7 1018.7 1017.5 0.0
28/02:00pm 20.1 16.3 1.9 30 8.6 ENE 11 17 6 9 1018.6 1017.4 0.0
28/01:30pm 19.6 15.0 1.3 29 8.5 NE 15 24 8 13 1018.8 1017.6 0.0
28/01:00pm 18.7 14.1 1.4 31 8.0 E 15 24 8 13 1019.4 1018.3 0.0
28/12:30pm 18.6 13.6 1.2 31 8.0 ESE 17 26 9 14 1019.6 1018.5 0.0
28/12:00pm 18.1 14.1 2.6 35 7.3 ENE 13 22 7 12 1020.2 1019.0 0.0
28/11:30am 17.8 13.0 2.7 36 7.1 ENE 17 26 9 14 1020.7 1019.6 0.0
28/11:00am 17.0 13.1 3.3 40 6.5 E 13 20 7 11 1021.5 1020.4 0.0
28/10:30am 16.9 11.9 3.4 40 6.4 E 19 26 10 14 1021.2 1020.1 0.0
28/10:00am 15.5 10.3 3.3 44 5.7 ESE 20 30 11 16 1021.1 1020.0 0.0

Other Formats:

Comma delimited format used in spreadsheet applications
http://www.bom.gov.au/fwo/IDD60801/IDD60801.94326.axf

JavaScript Object Notation format (JSON) in row-major order
http://www.bom.gov.au/fwo/IDD60801/IDD60801.94326.json